Time;durP1;ratioP1;P1;durP2;ratioP2;P2;SDS_P1;SDS_P2;PMS_P1;PMS_P2;Temp;Humidity;BMP_temperature;BMP_pressure;BME280_temperature;BME280_humidity;BME280_pressure;Samples;Min_cycle;Max_cycle;Signal;HPM_P1;HPM_P2
2023/09/08 00:01:38;;;;;;;10.27;9.27;;;;;;;19.78;50.95;94374.84;5015384;28;20717;-78
2023/09/08 00:04:04;;;;;;;16.55;10.57;;;;;;;19.66;50.07;94375.75;4982464;28;20040;-76
2023/09/08 00:06:29;;;;;;;10.77;9.65;;;;;;;20.01;48.16;94383.72;5016242;28;20037;-77
2023/09/08 00:08:54;;;;;;;13.07;6.45;;;;;;;19.91;46.03;94386.25;5014641;28;20045;-78
2023/09/08 00:11:20;;;;;;;14.05;7.68;;;;;;;19.78;45.90;94363.25;4996861;28;20036;-78
2023/09/08 00:13:45;;;;;;;7.82;6.95;;;;;;;19.68;46.31;94373.50;5012660;28;20025;-78
2023/09/08 00:16:11;;;;;;;7.22;6.55;;;;;;;19.62;46.41;94366.81;5016318;28;20088;-77
2023/09/08 00:18:36;;;;;;;7.68;6.43;;;;;;;19.83;46.16;94376.47;5014449;28;20124;-77
2023/09/08 00:21:01;;;;;;;7.90;6.05;;;;;;;19.63;45.41;94341.41;5013767;28;20038;-79
2023/09/08 00:23:28;;;;;;;9.98;6.03;;;;;;;19.63;44.92;94346.03;5015341;28;20149;-77
2023/09/08 00:25:53;;;;;;;8.65;6.03;;;;;;;19.82;45.02;94361.41;4997930;28;20113;-76
2023/09/08 00:28:19;;;;;;;6.90;5.55;;;;;;;19.95;44.03;94351.97;5015906;28;20040;-76
2023/09/08 00:30:44;;;;;;;6.80;6.05;;;;;;;19.91;44.18;94359.25;5002305;28;20037;-78
2023/09/08 00:33:11;;;;;;;8.70;5.75;;;;;;;19.83;44.07;94349.47;5016218;28;20141;-78
2023/09/08 00:35:38;;;;;;;5.18;4.68;;;;;;;19.87;44.39;94355.69;5019811;28;20038;-77
2023/09/08 00:38:03;;;;;;;5.90;5.05;;;;;;;19.84;44.45;94346.41;5018918;28;20024;-77
2023/09/08 00:40:29;;;;;;;8.57;5.72;;;;;;;19.75;44.44;94360.13;5018619;28;20393;-76
2023/09/08 00:42:54;;;;;;;6.20;4.13;;;;;;;19.76;44.39;94347.41;5017690;28;20037;-77
2023/09/08 00:45:20;;;;;;;6.55;4.75;;;;;;;19.95;43.88;94346.59;5018004;28;20437;-75
2023/09/08 00:47:45;;;;;;;7.55;3.95;;;;;;;20.02;43.77;94366.41;5019366;28;20040;-76
2023/09/08 00:50:11;;;;;;;5.18;4.32;;;;;;;19.78;44.16;94360.56;5020087;28;20022;-78
2023/09/08 00:52:36;;;;;;;6.07;4.68;;;;;;;;;;5018201;28;20116;-77
2023/09/08 00:55:04;;;;;;;7.13;4.22;;;;;;;19.81;44.85;94351.72;5018243;28;20053;-77
2023/09/08 00:57:30;;;;;;;6.32;4.60;;;;;;;19.82;44.51;94347.91;4993289;28;20041;-77
2023/09/08 00:59:56;;;;;;;5.40;4.30;;;;;;;19.72;45.05;94349.25;5017442;28;20044;-77
2023/09/08 01:02:22;;;;;;;6.25;4.72;;;;;;;19.78;45.03;94352.47;4993799;28;20029;-78
2023/09/08 01:04:48;;;;;;;8.55;5.03;;;;;;;19.72;45.19;94346.56;5017806;28;20149;-78
2023/09/08 01:07:15;;;;;;;5.97;4.35;;;;;;;19.86;44.97;94354.13;5016658;28;20040;-76
2023/09/08 01:09:40;;;;;;;7.72;4.95;;;;;;;19.88;45.10;94352.66;5016668;28;20037;-76
2023/09/08 01:12:07;;;;;;;5.53;3.60;;;;;;;19.63;45.49;94341.41;5017987;28;20025;-78
2023/09/08 01:14:32;;;;;;;7.68;4.90;;;;;;;19.90;45.18;94344.19;5018925;28;20493;-76
2023/09/08 01:16:58;;;;;;;7.25;5.43;;;;;;;20.13;44.56;94345.00;5017836;28;20113;-78
2023/09/08 01:19:23;;;;;;;8.18;4.28;;;;;;;20.04;44.80;94339.81;5018779;28;20034;-77
2023/09/08 01:22:07;;;;;;;5.85;4.25;;;;;;;20.06;44.84;94350.25;5018545;28;20051;-74
2023/09/08 01:24:59;;;;;;;9.18;4.60;;;;;;;20.13;44.77;94334.19;4998867;28;20029;-76
2023/09/08 01:27:27;;;;;;;9.07;4.35;;;;;;;19.95;44.85;94351.97;5017493;28;20038;-76
2023/09/08 01:29:53;;;;;;;9.18;4.60;;;;;;;19.74;45.78;94352.41;5017200;28;20033;-77
2023/09/08 01:32:20;;;;;;;6.93;4.68;;;;;;;19.50;45.83;94337.31;5015782;28;20563;-76
2023/09/08 01:34:46;;;;;;;9.43;4.07;;;;;;;19.66;45.89;94340.69;5018251;28;20021;-77
2023/09/08 01:37:11;;;;;;;6.72;4.53;;;;;;;19.41;46.80;94311.66;5018432;28;20607;-77
2023/09/08 01:39:36;;;;;;;7.57;4.50;;;;;;;19.69;47.24;94350.78;5017442;28;20031;-76
2023/09/08 01:42:02;;;;;;;6.13;4.50;;;;;;;19.74;47.24;94337.00;5000178;28;20076;-76
2023/09/08 01:44:27;;;;;;;8.00;4.90;;;;;;;19.48;47.79;94338.78;5015929;28;20057;-76
2023/09/08 01:46:56;;;;;;;10.50;4.63;;;;;;;19.55;47.92;94339.72;5017499;28;20367;-76
2023/09/08 01:49:22;;;;;;;7.28;4.30;;;;;;;19.75;47.39;94337.75;5017512;28;20045;-76
2023/09/08 01:51:48;;;;;;;6.82;5.15;;;;;;;19.72;47.53;94339.25;5016329;28;20075;-75
2023/09/08 01:54:13;;;;;;;6.95;4.22;;;;;;;19.72;47.50;94325.75;5017155;28;20327;-77
2023/09/08 01:56:39;;;;;;;8.43;5.10;;;;;;;19.58;47.94;94339.00;5013794;28;20053;-77
2023/09/08 01:59:04;;;;;;;10.27;6.55;;;;;;;19.32;48.84;94336.13;4999073;28;20025;-79
2023/09/08 02:01:30;;;;;;;6.30;4.95;;;;;;;19.36;49.32;94326.19;4999360;28;20454;-77
2023/09/08 02:03:55;;;;;;;7.38;4.72;;;;;;;19.46;49.35;94341.06;5015734;28;20510;-78
2023/09/08 02:06:20;;;;;;;8.77;5.18;;;;;;;19.33;49.86;94340.41;4999726;28;20119;-76
2023/09/08 02:08:46;;;;;;;7.18;5.43;;;;;;;19.35;49.82;94348.94;5016228;28;20163;-78
2023/09/08 02:11:11;;;;;;;6.40;4.82;;;;;;;19.12;50.27;94321.88;4998865;28;20175;-78
2023/09/08 02:13:37;;;;;;;7.60;4.93;;;;;;;19.28;50.13;94343.38;4998808;28;20616;-77
2023/09/08 02:16:02;;;;;;;5.63;4.93;;;;;;;19.58;49.43;94344.38;5018515;28;20383;-78
2023/09/08 02:18:28;;;;;;;8.23;4.97;;;;;;;19.30;50.11;94338.44;5017254;28;20037;-76
2023/09/08 02:20:53;;;;;;;7.13;5.22;;;;;;;19.26;50.40;94338.34;5000318;28;20117;-76
2023/09/08 02:23:18;;;;;;;7.43;5.35;;;;;;;19.39;50.23;94344.38;4999602;28;20436;-78
2023/09/08 02:25:44;;;;;;;9.32;5.38;;;;;;;19.58;50.07;94338.22;5016313;28;20060;-78
2023/09/08 02:28:09;;;;;;;9.43;5.15;;;;;;;19.50;49.96;94323.81;5016640;28;20523;-77
2023/09/08 02:30:35;;;;;;;8.32;5.32;;;;;;;19.51;50.26;94314.56;5015844;28;20321;-77
2023/09/08 02:33:02;;;;;;;6.97;5.13;;;;;;;19.64;50.08;94321.38;5017891;28;20541;-77
2023/09/08 02:35:28;;;;;;;7.40;5.15;;;;;;;19.66;50.16;94326.41;5017533;28;20120;-76
2023/09/08 02:37:53;;;;;;;6.88;5.32;;;;;;;19.59;49.84;94307.41;5017821;28;20119;-77
2023/09/08 02:40:20;;;;;;;10.05;6.22;;;;;;;19.47;50.65;94321.81;5014577;28;20159;-78
2023/09/08 02:42:46;;;;;;;11.40;5.85;;;;;;;19.51;50.83;94322.66;5015013;28;20029;-77
2023/09/08 02:45:11;;;;;;;6.75;5.20;;;;;;;19.40;51.00;94310.88;5014132;28;20504;-77
2023/09/08 02:47:36;;;;;;;8.35;5.63;;;;;;;19.26;51.59;94316.75;5016284;28;20087;-77
2023/09/08 02:50:05;;;;;;;7.00;5.50;;;;;;;19.06;52.18;94322.53;5014695;28;20040;-78
2023/09/08 02:52:30;;;;;;;7.45;5.07;;;;;;;19.23;51.92;94324.78;5015598;28;20437;-78
2023/09/08 02:54:55;;;;;;;9.10;5.78;;;;;;;19.15;52.34;94325.78;4995700;28;20808;-77
2023/09/08 02:57:24;;;;;;;7.90;6.05;;;;;;;19.04;52.64;94320.16;5015033;28;20033;-77
2023/09/08 02:59:56;;;;;;;7.10;6.05;;;;;;;19.25;52.39;94330.63;4993187;28;20040;-76
2023/09/08 03:02:21;;;;;;;7.15;5.28;;;;;;;19.01;53.43;94320.91;5012257;28;20354;-79
2023/09/08 03:04:47;;;;;;;9.75;6.38;;;;;;;19.21;53.08;94319.75;4999406;28;20032;-78
2023/09/08 03:07:12;;;;;;;8.60;6.07;;;;;;;19.17;53.13;94323.50;5014084;28;20040;-79
2023/09/08 03:09:37;;;;;;;12.75;6.90;;;;;;;19.25;53.56;94333.31;5014376;28;20528;-76
2023/09/08 03:12:03;;;;;;;9.25;6.65;;;;;;;19.30;53.31;94320.34;5013546;28;20057;-77
2023/09/08 03:14:28;;;;;;;9.07;6.32;;;;;;;19.41;53.24;94328.59;4997246;28;20477;-77
2023/09/08 03:16:54;;;;;;;9.63;6.65;;;;;;;19.28;52.98;94311.03;5012465;28;20490;-77
2023/09/08 03:19:20;;;;;;;10.35;6.68;;;;;;;19.30;53.76;94330.34;4989352;28;20029;-78
2023/09/08 03:21:45;;;;;;;10.18;6.72;;;;;;;19.19;53.47;94315.84;4991951;28;20025;-76
2023/09/08 03:24:11;;;;;;;9.30;6.50;;;;;;;19.22;53.28;94309.72;5014552;28;20047;-78
2023/09/08 03:26:36;;;;;;;10.18;5.80;;;;;;;19.19;53.13;94323.94;5015067;28;20514;-77
2023/09/08 03:29:02;;;;;;;14.38;6.10;;;;;;;19.06;53.28;94317.91;5013687;28;20365;-78
2023/09/08 03:31:27;;;;;;;9.38;6.40;;;;;;;19.05;53.70;94326.34;5015990;28;20042;-78
2023/09/08 03:33:52;;;;;;;7.57;5.93;;;;;;;19.07;53.58;94332.94;4996965;28;20039;-79
2023/09/08 03:36:18;;;;;;;13.68;6.05;;;;;;;19.14;53.37;94340.41;5017497;28;20695;-78
2023/09/08 03:38:44;;;;;;;9.77;5.82;;;;;;;19.09;53.64;94336.06;5015288;28;20100;-76
2023/09/08 03:41:10;;;;;;;7.32;6.45;;;;;;;19.09;53.87;94351.47;5015169;28;20580;-77
2023/09/08 03:43:36;;;;;;;8.13;5.57;;;;;;;19.07;53.59;94340.25;5016317;28;20064;-77
2023/09/08 03:46:01;;;;;;;11.52;6.18;;;;;;;18.86;53.70;94316.34;5015824;28;20125;-78
2023/09/08 03:48:26;;;;;;;10.15;6.30;;;;;;;18.99;53.89;94338.53;4997767;28;20777;-78
2023/09/08 03:50:52;;;;;;;9.95;6.53;;;;;;;19.05;53.98;94347.91;5012425;28;20041;-77
2023/09/08 03:53:17;;;;;;;9.60;6.28;;;;;;;18.97;54.51;94344.28;5012334;28;20055;-76
2023/09/08 03:55:42;;;;;;;11.23;7.18;;;;;;;18.96;54.52;94339.25;4998138;28;20531;-79
2023/09/08 03:58:08;;;;;;;7.65;6.53;;;;;;;18.89;54.74;94323.72;5015583;28;20300;-78
2023/09/08 04:00:35;;;;;;;13.57;7.22;;;;;;;18.93;54.93;94339.94;5015014;28;20794;-77
2023/09/08 04:03:00;;;;;;;9.20;6.80;;;;;;;18.84;55.22;94329.38;5013971;28;20222;-78
2023/09/08 04:05:25;;;;;;;6.95;6.22;;;;;;;18.92;54.88;94333.78;4996640;28;20038;-77
2023/09/08 04:07:51;;;;;;;8.05;6.82;;;;;;;18.91;55.67;94345.72;5018716;28;20489;-76
2023/09/08 04:10:16;;;;;;;11.15;7.78;;;;;;;18.89;55.46;94337.97;5017317;28;20501;-79
2023/09/08 04:12:42;;;;;;;14.55;7.63;;;;;;;18.81;56.25;94325.47;5018318;28;20128;-78
2023/09/08 04:15:08;;;;;;;10.93;7.70;;;;;;;18.76;56.61;94325.75;5018842;28;20033;-79
2023/09/08 04:17:35;;;;;;;10.98;6.18;;;;;;;18.92;56.41;94338.41;5018856;28;20048;-77
2023/09/08 04:20:05;;;;;;;15.65;8.40;;;;;;;18.93;56.61;94334.56;5002221;28;20105;-78
2023/09/08 04:22:32;;;;;;;10.55;7.05;;;;;;;18.85;56.78;94329.03;5021231;28;20044;-76
2023/09/08 04:24:57;;;;;;;10.57;7.32;;;;;;;18.92;56.72;94327.63;5019017;28;20045;-78
2023/09/08 04:27:23;;;;;;;10.70;7.35;;;;;;;18.98;56.74;94335.06;5017777;28;20126;-77
2023/09/08 04:29:49;;;;;;;11.75;8.00;;;;;;;18.86;56.93;94319.81;5018081;28;20618;-78
2023/09/08 04:32:14;;;;;;;8.73;7.57;;;;;;;19.00;56.91;94346.28;5019227;28;20493;-79
2023/09/08 04:34:41;;;;;;;9.25;8.13;;;;;;;19.04;57.06;94346.34;5018450;28;20029;-77
2023/09/08 04:37:06;;;;;;;7.90;7.10;;;;;;;18.97;56.95;94335.44;5019122;28;20030;-77
2023/09/08 04:39:33;;;;;;;11.15;7.07;;;;;;;18.83;57.20;94320.50;5017066;28;20040;-78
2023/09/08 04:41:58;;;;;;;10.30;7.13;;;;;;;18.92;57.30;94333.00;5001435;28;20033;-78
2023/09/08 04:44:23;;;;;;;9.88;7.22;;;;;;;18.99;57.41;94342.00;5017385;28;20025;-78
2023/09/08 04:46:49;;;;;;;10.77;7.47;;;;;;;19.11;56.98;94354.59;5002082;28;20025;-78
2023/09/08 04:49:14;;;;;;;14.45;7.80;;;;;;;19.19;56.63;94354.38;5017220;28;20049;-78
2023/09/08 04:51:40;;;;;;;12.68;7.75;;;;;;;19.15;56.87;94344.66;5021583;28;20076;-77
2023/09/08 04:54:05;;;;;;;8.45;7.45;;;;;;;19.17;56.69;94347.75;5016416;28;20047;-77
2023/09/08 04:56:31;;;;;;;11.63;6.95;;;;;;;19.28;56.26;94340.69;5017419;28;20080;-78
2023/09/08 04:58:57;;;;;;;10.18;7.60;;;;;;;19.40;55.75;94347.84;5016947;28;20025;-76
2023/09/08 05:01:23;;;;;;;8.85;6.88;;;;;;;19.39;55.66;94352.47;4992242;28;20032;-78
2023/09/08 05:03:49;;;;;;;8.55;6.35;;;;;;;19.38;54.49;94350.91;5020674;28;20405;-78
2023/09/08 05:06:14;;;;;;;8.80;5.72;;;;;;;19.38;53.45;94350.13;5002386;28;20579;-76
2023/09/08 05:08:39;;;;;;;7.63;6.05;;;;;;;19.36;52.84;94353.16;5015604;28;20033;-77
2023/09/08 05:11:05;;;;;;;15.23;7.43;;;;;;;19.45;53.62;94353.00;5018086;28;20021;-79
2023/09/08 05:13:30;;;;;;;10.63;6.18;;;;;;;19.47;52.69;94351.50;5016561;28;20718;-77
2023/09/08 05:16:00;;;;;;;10.13;6.03;;;;;;;19.49;52.21;94351.94;5016755;28;20038;-76
2023/09/08 05:18:28;;;;;;;9.75;6.68;;;;;;;19.49;51.26;94340.34;5013801;28;20125;-78
2023/09/08 05:20:54;;;;;;;8.52;5.30;;;;;;;19.61;50.38;94359.06;5015483;28;20041;-77
2023/09/08 05:23:19;;;;;;;8.52;6.32;;;;;;;19.20;50.69;94339.00;4997875;28;20114;-79
2023/09/08 05:25:45;;;;;;;9.77;5.47;;;;;;;19.10;50.91;94324.16;5017593;28;20052;-77
2023/09/08 05:28:10;;;;;;;9.43;5.97;;;;;;;19.10;52.01;94355.72;5010118;28;20092;-77
2023/09/08 05:30:36;;;;;;;11.25;5.78;;;;;;;19.13;52.13;94338.84;5013918;28;20057;-77
2023/09/08 05:33:01;;;;;;;10.15;5.63;;;;;;;19.26;51.93;94351.81;5014309;28;20493;-77
2023/09/08 05:35:27;;;;;;;10.20;6.03;;;;;;;19.40;51.04;94337.06;5016236;28;20125;-77
2023/09/08 05:37:52;;;;;;;11.80;6.00;;;;;;;19.41;51.63;94349.44;5017421;28;20013;-77
2023/09/08 05:40:18;;;;;;;11.77;6.18;;;;;;;19.13;51.71;94344.22;5013935;28;20401;-78
2023/09/08 05:42:44;;;;;;;8.73;4.68;;;;;;;19.29;50.87;94336.84;5017363;28;20056;-77
2023/09/08 05:45:09;;;;;;;6.85;5.03;;;;;;;19.33;50.68;94348.50;5016670;28;20120;-78
2023/09/08 05:47:35;;;;;;;8.20;5.03;;;;;;;19.44;49.87;94354.88;5016508;28;20061;-79
2023/09/08 05:50:01;;;;;;;6.70;4.60;;;;;;;19.66;49.07;94364.97;5012426;28;20056;-80
2023/09/08 05:52:28;;;;;;;9.73;5.30;;;;;;;19.51;47.99;94365.03;5019918;28;20124;-78
2023/09/08 05:54:53;;;;;;;6.03;4.30;;;;;;;19.63;48.12;94356.81;5015042;28;20124;-78
2023/09/08 05:57:19;;;;;;;7.80;4.43;;;;;;;19.26;48.12;94335.63;5017968;28;20443;-78
2023/09/08 05:59:44;;;;;;;5.10;4.60;;;;;;;19.48;47.81;94355.75;4999574;28;20037;-77
2023/09/08 06:02:10;;;;;;;5.90;4.50;;;;;;;19.51;47.58;94365.81;5017158;28;20022;-76
2023/09/08 06:04:36;;;;;;;12.63;4.47;;;;;;;19.36;47.95;94353.16;4995514;28;20321;-78
2023/09/08 06:07:01;;;;;;;10.95;4.63;;;;;;;19.65;48.16;94358.00;5016787;28;20041;-79
2023/09/08 06:09:27;;;;;;;6.50;4.47;;;;;;;19.57;47.54;94359.00;5014760;28;20088;-78
2023/09/08 06:11:52;;;;;;;6.43;4.18;;;;;;;19.72;47.07;94365.47;5015636;28;20044;-78
2023/09/08 06:14:17;;;;;;;8.18;4.25;;;;;;;19.96;47.08;94354.34;5016234;28;20359;-79
2023/09/08 06:16:43;;;;;;;13.18;4.68;;;;;;;20.07;46.33;94355.31;5000088;28;20613;-80
2023/09/08 06:19:08;;;;;;;8.88;4.47;;;;;;;19.89;45.78;94364.22;5017591;28;20052;-76
2023/09/08 06:21:33;;;;;;;9.75;4.97;;;;;;;19.84;46.98;94368.00;4991580;28;20656;-77
2023/09/08 06:23:59;;;;;;;6.93;4.38;;;;;;;19.93;46.87;94360.47;5016311;28;20045;-77
2023/09/08 06:26:24;;;;;;;6.05;3.75;;;;;;;19.92;46.44;94377.78;5015159;28;20029;-79
2023/09/08 06:28:50;;;;;;;10.55;3.67;;;;;;;20.06;46.66;94379.94;4993062;28;20596;-78
2023/09/08 06:31:15;;;;;;;9.38;3.92;;;;;;;19.98;45.35;94365.56;5015493;28;20677;-78
2023/09/08 06:33:40;;;;;;;9.43;4.57;;;;;;;20.15;45.46;94380.50;5015264;28;20064;-77
2023/09/08 06:36:06;;;;;;;5.32;3.90;;;;;;;20.31;45.46;94381.19;5017452;28;20315;-76
2023/09/08 06:38:32;;;;;;;7.75;3.58;;;;;;;20.05;44.82;94379.16;5014650;28;20107;-77
2023/09/08 06:40:58;;;;;;;8.48;3.83;;;;;;;19.98;45.19;94378.28;4998312;28;20029;-78
2023/09/08 06:43:24;;;;;;;8.50;3.78;;;;;;;20.02;45.62;94379.13;5013476;28;20037;-78
2023/09/08 06:45:49;;;;;;;5.53;3.92;;;;;;;20.12;45.64;94389.31;4992965;28;20152;-78
2023/09/08 06:48:16;;;;;;;8.93;4.43;;;;;;;20.09;45.44;94396.22;5015834;28;20073;-78
2023/09/08 06:50:41;;;;;;;7.22;4.47;;;;;;;20.10;45.00;94394.28;5000073;28;20056;-77
2023/09/08 06:53:07;;;;;;;8.98;3.78;;;;;;;20.19;44.25;94394.88;5016249;28;20053;-78
2023/09/08 06:55:32;;;;;;;6.13;4.03;;;;;;;20.22;45.33;94391.47;5011158;28;20080;-78
2023/09/08 06:57:58;;;;;;;10.52;3.63;;;;;;;20.16;44.18;94390.16;5007421;28;20038;-79
2023/09/08 07:00:23;;;;;;;4.22;3.15;;;;;;;20.08;44.05;94389.28;5006877;28;20044;-78
2023/09/08 07:02:51;;;;;;;8.90;4.32;;;;;;;20.16;44.77;94379.38;5008082;28;20037;-78
2023/09/08 07:05:17;;;;;;;8.10;4.18;;;;;;;20.49;44.79;94393.06;5007784;28;20546;-79
2023/09/08 07:07:43;;;;;;;7.45;3.28;;;;;;;20.47;43.37;94395.38;4990557;28;20033;-80
2023/09/08 07:10:09;;;;;;;8.80;4.18;;;;;;;20.27;44.32;94387.69;5005753;28;20037;-77
2023/09/08 07:12:34;;;;;;;7.20;3.55;;;;;;;20.14;44.85;94392.47;5010206;28;21832;-78
2023/09/08 07:15:00;;;;;;;8.30;3.85;;;;;;;20.23;44.56;94394.94;4989202;28;20037;-78
2023/09/08 07:17:26;;;;;;;8.55;3.45;;;;;;;20.10;44.27;94386.97;5008600;28;20766;-78
2023/09/08 07:19:52;;;;;;;7.47;4.70;;;;;;;20.41;44.53;94396.81;5008079;28;20021;-76
2023/09/08 07:22:18;;;;;;;5.65;3.50;;;;;;;20.51;44.59;94390.78;5007931;28;20599;-78
2023/09/08 07:24:44;;;;;;;7.50;3.80;;;;;;;20.49;43.83;94373.38;4989337;28;20037;-78
2023/09/08 07:27:10;;;;;;;11.65;3.00;;;;;;;20.56;44.03;94370.78;5007973;28;20509;-77
2023/09/08 07:29:35;;;;;;;5.47;4.18;;;;;;;20.36;43.64;94378.19;4989882;28;20044;-79
2023/09/08 07:32:01;;;;;;;5.15;3.58;;;;;;;20.38;43.49;94377.84;5007877;28;20030;-77
2023/09/08 07:34:26;;;;;;;7.70;3.70;;;;;;;20.23;43.95;94390.34;5007672;28;20126;-78
2023/09/08 07:36:51;;;;;;;8.32;4.57;;;;;;;20.36;44.07;94378.19;5008244;28;20184;-77
2023/09/08 07:39:17;;;;;;;9.82;4.65;;;;;;;20.54;43.80;94373.84;5010606;28;20042;-77
2023/09/08 07:41:42;;;;;;;8.45;3.70;;;;;;;20.33;43.49;94365.41;4992207;28;20041;-78
2023/09/08 07:44:08;;;;;;;10.70;4.00;;;;;;;20.50;44.46;94373.00;5010803;28;20060;-78
2023/09/08 07:46:33;;;;;;;6.28;4.13;;;;;;;20.71;43.74;94377.19;4992193;28;20644;-78
2023/09/08 07:48:59;;;;;;;6.95;3.75;;;;;;;20.72;43.08;94371.44;4991829;28;20421;-78
2023/09/08 07:51:26;;;;;;;6.43;3.70;;;;;;;20.92;42.91;94372.13;4993680;28;20060;-77
2023/09/08 07:53:53;;;;;;;9.60;3.85;;;;;;;20.42;42.70;94349.75;5013581;28;20037;-78
2023/09/08 07:56:18;;;;;;;6.03;3.40;;;;;;;20.71;43.54;94372.56;5011417;28;20549;-79
2023/09/08 07:58:43;;;;;;;3.75;3.45;;;;;;;20.90;43.64;94369.00;5020773;28;20033;-78
2023/09/08 08:01:09;;;;;;;5.30;3.35;;;;;;;21.16;42.89;94379.81;5017840;28;20053;-78
2023/09/08 08:03:37;;;;;;;7.32;3.75;;;;;;;21.26;42.39;94379.19;5018239;28;20482;-78
2023/09/08 08:06:03;;;;;;;4.45;3.88;;;;;;;21.11;42.40;94374.72;4999521;28;20124;-78
2023/09/08 08:08:28;;;;;;;5.68;3.10;;;;;;;21.18;41.96;94384.84;4998863;28;20255;-78
2023/09/08 08:10:54;;;;;;;6.38;3.47;;;;;;;21.32;41.87;94377.69;5000721;28;20025;-75
2023/09/08 08:13:19;;;;;;;8.48;4.03;;;;;;;21.18;41.97;94368.59;5019261;28;20090;-77
2023/09/08 08:15:48;;;;;;;5.60;3.13;;;;;;;21.07;42.26;94354.94;5016944;28;20033;-78
2023/09/08 08:18:13;;;;;;;4.45;3.65;;;;;;;21.51;42.51;94368.63;5018278;28;20037;-78
2023/09/08 08:20:39;;;;;;;6.32;3.90;;;;;;;20.98;41.77;94347.09;5017740;28;20472;-76
2023/09/08 08:23:06;;;;;;;6.25;3.38;;;;;;;21.23;42.13;94371.00;4993307;28;20029;-78
2023/09/08 08:25:32;;;;;;;6.72;3.78;;;;;;;21.12;42.96;94348.47;4986513;28;20840;-79
2023/09/08 08:27:59;;;;;;;6.68;3.20;;;;;;;21.40;42.39;94371.22;5009496;28;20038;-79
2023/09/08 08:30:25;;;;;;;4.03;3.15;;;;;;;21.64;42.65;94366.50;5007962;28;20868;-76
2023/09/08 08:32:51;;;;;;;3.13;2.80;;;;;;;21.85;42.06;94356.66;5012466;28;20599;-78
2023/09/08 08:35:17;;;;;;;3.25;2.92;;;;;;;21.96;41.62;94374.97;5011092;28;20048;-78
2023/09/08 08:37:42;;;;;;;8.43;2.47;;;;;;;22.04;40.82;94358.44;4994234;28;20485;-78
2023/09/08 08:40:13;;;;;;;7.28;3.65;;;;;;;21.97;40.61;94361.06;5008655;28;20445;-77
2023/09/08 08:42:43;;;;;;;3.47;3.17;;;;;;;21.71;40.20;94366.56;5012149;28;20339;-77
2023/09/08 08:45:10;;;;;;;4.95;3.83;;;;;;;21.70;40.18;94362.31;5008958;28;20037;-79
2023/09/08 08:47:36;;;;;;;4.78;3.88;;;;;;;21.70;40.01;94362.31;5004700;28;20488;-78
2023/09/08 08:50:03;;;;;;;11.90;3.95;;;;;;;21.93;40.92;94360.25;5012767;28;20033;-77
2023/09/08 08:52:29;;;;;;;5.57;3.03;;;;;;;22.02;40.75;94352.59;5004908;28;20087;-78
2023/09/08 08:54:55;;;;;;;5.05;3.55;;;;;;;21.84;39.68;94354.34;5012335;28;20297;-78
2023/09/08 08:57:22;;;;;;;7.35;3.22;;;;;;;21.67;39.42;94354.94;5003639;28;20033;-79
2023/09/08 08:59:49;;;;;;;5.97;2.58;;;;;;;21.71;40.07;94361.16;5002393;28;20330;-77
2023/09/08 09:02:15;;;;;;;5.43;3.15;;;;;;;21.75;40.33;94333.00;4992759;28;20103;-79
2023/09/08 09:04:40;;;;;;;7.47;3.65;;;;;;;21.90;40.06;94339.34;5014879;28;20021;-77
2023/09/08 09:07:07;;;;;;;7.78;3.53;;;;;;;22.11;40.34;94350.34;4999374;28;20405;-77
2023/09/08 09:09:33;;;;;;;6.22;3.42;;;;;;;22.06;40.20;94337.16;5015868;28;20034;-77
2023/09/08 09:11:58;;;;;;;5.70;3.40;;;;;;;22.28;40.03;94349.78;5016179;28;20162;-77
2023/09/08 09:14:24;;;;;;;7.63;3.67;;;;;;;22.29;39.43;94343.19;4999950;28;20056;-79
2023/09/08 09:16:50;;;;;;;9.73;3.65;;;;;;;22.00;39.76;94346.75;5017068;28;20124;-79
2023/09/08 09:19:31;;;;;;;4.82;3.50;;;;;;;22.28;39.62;94349.00;5018182;28;20642;-78
2023/09/08 09:21:57;;;;;;;8.80;3.63;;;;;;;22.25;39.62;94341.59;5015511;28;20068;-77
2023/09/08 09:24:36;;;;;;;4.63;3.38;;;;;;;21.87;39.13;94350.91;5019371;28;20110;-77
2023/09/08 09:27:04;;;;;;;5.47;2.80;;;;;;;22.16;38.37;94347.31;5017547;28;20042;-77
2023/09/08 09:29:30;;;;;;;4.65;3.22;;;;;;;21.85;38.34;94340.44;5015442;28;20042;-77
2023/09/08 09:32:01;;;;;;;5.43;3.60;;;;;;;22.30;39.62;94333.91;5017431;28;20033;-78
2023/09/08 09:34:27;;;;;;;4.63;3.53;;;;;;;22.56;39.32;94337.59;4996139;28;20169;-75
2023/09/08 09:36:52;;;;;;;9.30;3.55;;;;;;;22.28;39.24;94333.53;5017546;28;20580;-77
2023/09/08 09:39:23;;;;;;;6.55;3.55;;;;;;;22.38;38.90;94336.69;4997737;28;20095;-78
2023/09/08 09:41:52;;;;;;;8.68;3.13;;;;;;;22.35;38.52;94340.13;5016502;28;20038;-77
2023/09/08 09:44:18;;;;;;;6.43;3.55;;;;;;;22.07;38.91;94333.28;5012842;28;20120;-77
2023/09/08 09:46:47;;;;;;;6.15;3.33;;;;;;;22.26;38.69;94340.44;5017078;28;20476;-79
2023/09/08 09:49:19;;;;;;;3.92;3.17;;;;;;;22.07;39.62;94329.81;4997397;28;20076;-78
2023/09/08 09:51:50;;;;;;;3.38;3.08;;;;;;;22.31;39.43;94331.97;4991276;28;20384;-77
2023/09/08 09:54:16;;;;;;;5.93;3.67;;;;;;;22.24;38.78;94315.69;5016368;28;20052;-79
2023/09/08 09:56:43;;;;;;;9.88;4.28;;;;;;;22.51;39.15;94325.16;5015447;28;20070;-77
2023/09/08 09:59:11;;;;;;;6.47;3.50;;;;;;;21.73;38.91;94334.50;5010493;28;20029;-78
2023/09/08 10:01:37;;;;;;;7.53;3.88;;;;;;;22.19;38.98;94319.47;5004791;28;20868;-77
2023/09/08 10:04:04;;;;;;;4.85;3.65;;;;;;;22.48;41.81;94311.59;5016723;28;20124;-77
2023/09/08 10:06:34;;;;;;;6.15;3.72;;;;;;;22.10;39.28;94327.13;5014903;28;20602;-77
2023/09/08 10:09:04;;;;;;;8.15;3.95;;;;;;;22.03;39.63;94316.25;4996529;28;20086;-77
2023/09/08 10:11:38;;;;;;;5.30;3.75;;;;;;;22.01;39.53;94323.94;5016922;28;20812;-78
2023/09/08 10:14:07;;;;;;;6.67;4.60;;;;;;;22.15;39.95;94318.66;5015243;28;20033;-78
2023/09/08 10:16:35;;;;;;;6.57;3.85;;;;;;;22.21;39.29;94319.91;5013758;28;20045;-77
2023/09/08 10:19:07;;;;;;;6.28;4.13;;;;;;;22.45;39.08;94320.47;5010044;28;20520;-76
2023/09/08 10:21:36;;;;;;;12.13;3.83;;;;;;;22.37;38.95;94302.63;5013184;28;20037;-77
2023/09/08 10:24:13;;;;;;;8.30;4.22;;;;;;;22.10;38.26;94310.88;5010984;28;20037;-78
2023/09/08 10:26:44;;;;;;;3.85;3.22;;;;;;;22.35;39.31;94307.63;5012802;28;20226;-76
2023/09/08 10:29:11;;;;;;;10.32;4.32;;;;;;;22.36;38.80;94309.19;4996045;28;20025;-77
2023/09/08 10:31:37;;;;;;;4.53;3.15;;;;;;;22.13;39.08;94302.00;4991391;28;20319;-78
2023/09/08 10:34:03;;;;;;;7.78;3.80;;;;;;;22.39;38.72;94305.72;5007153;28;20037;-78
2023/09/08 10:36:28;;;;;;;5.93;3.33;;;;;;;22.08;38.46;94296.94;4995800;28;20041;-78
2023/09/08 10:38:56;;;;;;;6.07;3.30;;;;;;;22.55;38.66;94300.78;5016581;28;20026;-78
2023/09/08 10:41:21;;;;;;;6.70;3.92;;;;;;;22.65;38.89;94302.81;5015051;28;20025;-77
2023/09/08 10:43:56;;;;;;;11.95;4.20;;;;;;;22.78;38.44;94304.03;5015757;28;20041;-78
2023/09/08 10:46:30;;;;;;;6.13;3.30;;;;;;;22.61;38.46;94302.00;4991586;28;20453;-78
2023/09/08 10:49:03;;;;;;;5.83;3.37;;;;;;;22.54;38.73;94308.16;5014916;28;20091;-77
2023/09/08 10:51:29;;;;;;;4.20;3.20;;;;;;;22.56;38.48;94303.13;4990136;28;20294;-77
2023/09/08 10:53:54;;;;;;;5.03;3.95;;;;;;;22.53;39.02;94300.41;5012767;28;20049;-77
2023/09/08 10:56:20;;;;;;;6.97;4.20;;;;;;;22.22;39.02;94301.72;5011949;28;20505;-78
2023/09/08 10:58:50;;;;;;;10.75;3.55;;;;;;;22.15;39.13;94302.41;5013137;28;20029;-77
2023/09/08 11:01:17;;;;;;;8.50;3.80;;;;;;;21.85;39.32;94291.69;4997479;28;20033;-76
2023/09/08 11:03:46;;;;;;;5.22;3.53;;;;;;;21.77;40.08;94289.28;4989881;28;20501;-76
2023/09/08 11:06:12;;;;;;;7.80;3.80;;;;;;;21.76;39.73;94295.84;5014249;28;20040;-76
2023/09/08 11:08:41;;;;;;;9.45;3.65;;;;;;;21.71;40.15;94278.03;5015252;28;20480;-78
2023/09/08 11:11:06;;;;;;;4.97;3.72;;;;;;;21.68;40.40;94291.53;5015732;28;20087;-77
2023/09/08 11:13:32;;;;;;;6.35;3.83;;;;;;;21.57;40.81;94277.09;5014637;28;20041;-76
2023/09/08 11:15:58;;;;;;;8.10;3.50;;;;;;;21.67;40.61;94298.09;5015957;28;20671;-77
2023/09/08 11:18:28;;;;;;;11.30;3.95;;;;;;;21.51;41.18;94284.75;5014686;28;20488;-76
2023/09/08 11:20:54;;;;;;;8.38;3.80;;;;;;;21.27;41.29;94260.91;4997910;28;20052;-76
2023/09/08 11:23:23;;;;;;;6.78;3.70;;;;;;;21.07;41.74;94281.91;5014223;28;20087;-77
2023/09/08 11:25:53;;;;;;;7.50;4.25;;;;;;;21.06;42.63;94280.38;4998597;28;20036;-77
2023/09/08 11:28:21;;;;;;;7.75;3.22;;;;;;;21.40;42.17;94281.16;5013006;28;20124;-76